createdAt,value
2023-03-28T00:00:03.982Z,3.88
2023-03-28T00:01:04.002Z,3.87
2023-03-28T00:02:04.020Z,3.88
2023-03-28T00:03:04.132Z,3.86
2023-03-28T00:04:04.094Z,3.80
2023-03-28T00:05:04.075Z,3.88
2023-03-28T00:06:04.178Z,3.88
2023-03-28T00:07:04.110Z,3.83
2023-03-28T00:08:04.126Z,3.86
2023-03-28T00:09:04.147Z,3.80
2023-03-28T00:10:04.170Z,3.72
2023-03-28T00:11:04.205Z,3.75
2023-03-28T00:12:04.196Z,3.70
2023-03-28T00:13:04.234Z,3.58
2023-03-28T00:14:04.249Z,3.68
2023-03-28T00:15:04.286Z,3.48
2023-03-28T00:16:04.298Z,3.57
2023-03-28T00:17:04.285Z,3.57
2023-03-28T00:18:04.301Z,3.55
2023-03-28T00:19:04.348Z,3.50
2023-03-28T00:20:04.335Z,3.50
2023-03-28T00:21:04.367Z,3.47
2023-03-28T00:22:04.372Z,3.48
2023-03-28T00:23:04.399Z,3.45
2023-03-28T00:24:04.427Z,3.39
2023-03-28T00:25:04.422Z,3.43
2023-03-28T00:26:04.443Z,3.45
2023-03-28T00:27:04.458Z,3.47
2023-03-28T00:28:04.472Z,3.43
2023-03-28T00:29:04.490Z,3.42
2023-03-28T00:30:04.510Z,3.48
2023-03-28T00:31:04.577Z,3.50
2023-03-28T00:32:04.543Z,3.43
2023-03-28T00:33:04.589Z,3.43
2023-03-28T00:34:04.577Z,3.47
2023-03-28T00:35:04.602Z,3.57
2023-03-28T00:36:04.621Z,3.48
2023-03-28T00:37:04.680Z,3.51
2023-03-28T00:38:04.668Z,3.54
2023-03-28T00:39:04.664Z,3.58
2023-03-28T00:40:04.681Z,3.50
2023-03-28T00:41:04.699Z,3.52
2023-03-28T00:42:04.713Z,3.55
2023-03-28T00:43:04.756Z,3.52
2023-03-28T00:44:04.751Z,3.47
2023-03-28T00:45:04.770Z,3.57
2023-03-28T00:46:09.443Z,3.51
2023-03-28T00:47:04.860Z,3.48
2023-03-28T00:48:04.893Z,3.50
2023-03-28T00:49:04.853Z,3.60
2023-03-28T00:50:04.852Z,3.51
2023-03-28T00:51:04.870Z,3.50
2023-03-28T00:52:04.889Z,3.52
2023-03-28T00:53:04.914Z,3.48
2023-03-28T00:54:04.925Z,3.62
2023-03-28T00:55:04.941Z,3.52
2023-03-28T00:56:04.960Z,3.50
2023-03-28T00:57:05.031Z,3.61
2023-03-28T00:58:05.000Z,3.47
2023-03-28T00:59:05.015Z,3.51
2023-03-28T01:00:05.041Z,3.52
2023-03-28T01:01:05.046Z,3.50
2023-03-28T01:02:05.181Z,3.48
2023-03-28T01:03:05.110Z,3.57
2023-03-28T01:04:05.098Z,3.62
2023-03-28T01:05:05.121Z,3.47
2023-03-28T01:06:05.133Z,3.51
2023-03-28T01:07:05.145Z,3.54
2023-03-28T01:08:05.169Z,3.51
2023-03-28T01:09:05.180Z,3.55
2023-03-28T01:10:05.202Z,3.62
2023-03-28T01:11:05.215Z,3.50
2023-03-28T01:12:05.234Z,3.52
2023-03-28T01:13:05.249Z,3.54
2023-03-28T01:14:05.265Z,3.43
2023-03-28T01:15:05.297Z,3.47
2023-03-28T01:16:05.347Z,3.48
2023-03-28T01:17:05.331Z,3.51
2023-03-28T01:18:05.341Z,3.40
2023-03-28T01:19:05.353Z,3.40
2023-03-28T01:20:05.368Z,3.43
2023-03-28T01:21:05.384Z,3.40
2023-03-28T01:22:05.401Z,3.42
2023-03-28T01:23:05.420Z,3.31
2023-03-28T01:24:11.773Z,3.29
2023-03-28T01:25:05.452Z,3.29
2023-03-28T01:26:05.469Z,3.29
2023-03-28T01:27:05.492Z,3.11
2023-03-28T01:28:05.503Z,3.15
2023-03-28T01:29:05.528Z,3.14
2023-03-28T01:30:05.537Z,3.11
2023-03-28T01:31:05.589Z,3.21
2023-03-28T01:32:05.576Z,3.08
2023-03-28T01:33:05.607Z,3.17
2023-03-28T01:34:05.606Z,3.10
2023-03-28T01:35:05.626Z,3.11
2023-03-28T01:36:05.651Z,3.00
2023-03-28T01:37:05.668Z,3.02
2023-03-28T01:38:05.672Z,2.96
2023-03-28T01:39:05.692Z,2.96
2023-03-28T01:40:05.734Z,2.89
2023-03-28T01:41:05.753Z,2.84
2023-03-28T01:42:05.752Z,2.82
2023-03-28T01:43:05.768Z,2.93
2023-03-28T01:44:05.775Z,2.79
2023-03-28T01:45:05.803Z,2.82
2023-03-28T01:46:05.853Z,2.81
2023-03-28T01:47:05.826Z,2.77
2023-03-28T01:48:05.920Z,2.77
2023-03-28T01:49:05.861Z,2.72
2023-03-28T01:50:05.898Z,2.74
2023-03-28T01:51:05.892Z,2.75
2023-03-28T01:52:05.910Z,2.66
2023-03-28T01:53:05.931Z,2.67
2023-03-28T01:54:05.959Z,2.66
2023-03-28T01:55:05.961Z,2.60
2023-03-28T01:56:05.976Z,2.54
2023-03-28T01:57:06.105Z,2.60
2023-03-28T01:58:06.012Z,2.61
2023-03-28T01:59:06.046Z,2.63
2023-03-28T02:00:06.045Z,2.63
2023-03-28T02:01:06.070Z,2.49
2023-03-28T02:02:06.124Z,2.48
2023-03-28T02:03:06.521Z,2.45
2023-03-28T02:04:06.109Z,2.45
2023-03-28T02:05:06.127Z,2.48
2023-03-28T02:06:06.151Z,2.49
2023-03-28T02:07:06.162Z,2.45
2023-03-28T02:08:06.183Z,2.49
2023-03-28T02:09:06.197Z,2.49
2023-03-28T02:10:06.213Z,2.46
2023-03-28T02:11:06.242Z,2.39
2023-03-28T02:12:06.250Z,2.41
2023-03-28T02:13:06.272Z,2.39
2023-03-28T02:14:06.284Z,2.34
2023-03-28T02:15:06.325Z,2.39
2023-03-28T02:16:06.377Z,2.42
2023-03-28T02:17:06.333Z,2.36
2023-03-28T02:18:06.360Z,2.28
2023-03-28T02:19:06.376Z,2.31
2023-03-28T02:20:06.385Z,2.27
2023-03-28T02:21:06.410Z,2.36
2023-03-28T02:22:06.442Z,2.21
2023-03-28T02:23:06.435Z,2.23
2023-03-28T02:24:06.456Z,2.21
2023-03-28T02:25:06.473Z,2.24
2023-03-28T02:26:06.486Z,2.18
2023-03-28T02:27:06.501Z,2.17
2023-03-28T02:28:06.534Z,2.20
2023-03-28T02:29:06.536Z,2.18
2023-03-28T02:30:06.556Z,2.16
2023-03-28T02:31:06.569Z,2.05
2023-03-28T02:32:06.843Z,2.17
2023-03-28T02:33:06.643Z,2.16
2023-03-28T02:34:06.629Z,2.14
2023-03-28T02:35:06.642Z,2.18
2023-03-28T02:36:06.683Z,2.16
2023-03-28T02:37:06.689Z,2.09
2023-03-28T02:38:06.701Z,2.06
2023-03-28T02:39:06.708Z,2.14
2023-03-28T02:40:06.722Z,2.00
2023-03-28T02:41:06.734Z,2.03
2023-03-28T02:42:06.756Z,2.00
2023-03-28T02:43:06.780Z,1.88
2023-03-28T02:44:06.791Z,1.91
2023-03-28T02:45:06.804Z,2.02
2023-03-28T02:46:06.847Z,2.07
2023-03-28T02:47:06.840Z,2.00
2023-03-28T02:48:06.858Z,1.88
2023-03-28T02:49:06.873Z,1.91
2023-03-28T02:50:06.899Z,1.93
2023-03-28T02:51:06.903Z,1.98
2023-03-28T02:52:06.920Z,1.88
2023-03-28T02:53:06.945Z,1.88
2023-03-28T02:54:07.030Z,1.98
2023-03-28T02:55:06.974Z,1.91
2023-03-28T02:56:06.983Z,1.84
2023-03-28T02:57:07.062Z,1.90
2023-03-28T02:58:07.018Z,1.88
2023-03-28T02:59:07.034Z,1.84
2023-03-28T03:00:07.053Z,1.91
2023-03-28T03:01:07.093Z,1.90
2023-03-28T03:02:07.082Z,1.83
2023-03-28T03:03:07.172Z,1.95
2023-03-28T03:04:07.137Z,1.79
2023-03-28T03:05:07.130Z,1.83
2023-03-28T03:06:07.148Z,1.76
2023-03-28T03:07:07.175Z,1.79
2023-03-28T03:08:07.182Z,1.84
2023-03-28T03:09:07.205Z,1.80
2023-03-28T03:10:07.221Z,1.70
2023-03-28T03:11:07.230Z,1.76
2023-03-28T03:12:07.246Z,1.73
2023-03-28T03:13:07.264Z,1.76
2023-03-28T03:14:07.279Z,1.77
2023-03-28T03:15:07.320Z,1.65
2023-03-28T03:16:07.340Z,1.69
2023-03-28T03:17:07.328Z,1.69
2023-03-28T03:18:07.361Z,1.69
2023-03-28T03:19:07.359Z,1.62
2023-03-28T03:20:07.449Z,1.63
2023-03-28T03:21:07.394Z,1.60
2023-03-28T03:22:07.429Z,1.66
2023-03-28T03:23:07.448Z,1.69
2023-03-28T03:24:07.452Z,1.63
2023-03-28T03:25:07.461Z,1.65
2023-03-28T03:26:07.489Z,1.63
2023-03-28T03:27:07.487Z,1.65
2023-03-28T03:28:07.502Z,1.60
2023-03-28T03:29:07.517Z,1.54
2023-03-28T03:30:07.545Z,1.55
2023-03-28T03:31:07.590Z,1.52
2023-03-28T03:32:07.569Z,1.52
2023-03-28T03:33:07.583Z,1.58
2023-03-28T03:34:07.613Z,1.59
2023-03-28T03:35:07.613Z,1.48
2023-03-28T03:36:07.651Z,1.48
2023-03-28T03:37:07.646Z,1.48
2023-03-28T03:38:07.667Z,1.48
2023-03-28T03:39:07.690Z,1.47
2023-03-28T03:40:07.702Z,1.45
2023-03-28T03:41:07.718Z,1.37
2023-03-28T03:42:07.740Z,1.42
2023-03-28T03:43:07.749Z,1.45
2023-03-28T03:44:07.764Z,1.51
2023-03-28T03:45:07.806Z,1.47
2023-03-28T03:46:07.828Z,1.42
2023-03-28T03:47:07.815Z,1.47
2023-03-28T03:48:07.982Z,1.33
2023-03-28T03:49:07.841Z,1.36
2023-03-28T03:50:07.858Z,1.34
2023-03-28T03:51:07.878Z,1.42
2023-03-28T03:52:07.891Z,1.41
2023-03-28T03:53:07.910Z,1.41
2023-03-28T03:54:07.920Z,1.27
2023-03-28T03:55:07.952Z,1.32
2023-03-28T03:56:07.953Z,1.23
2023-03-28T03:57:07.976Z,1.29
2023-03-28T03:58:08.001Z,1.30
2023-03-28T03:59:08.004Z,1.32
2023-03-28T04:00:08.014Z,1.26
2023-03-28T04:01:08.029Z,1.33
2023-03-28T04:02:08.076Z,1.24
2023-03-28T04:03:08.146Z,1.23
2023-03-28T04:04:08.128Z,1.22
2023-03-28T04:05:08.098Z,1.23
2023-03-28T04:06:08.108Z,1.20
2023-03-28T04:07:08.125Z,1.15
2023-03-28T04:08:08.141Z,1.12
2023-03-28T04:09:08.159Z,1.22
2023-03-28T04:10:08.175Z,1.11
2023-03-28T04:11:08.189Z,1.16
2023-03-28T04:12:08.211Z,1.16
2023-03-28T04:13:08.225Z,1.11
2023-03-28T04:14:08.236Z,1.12
2023-03-28T04:15:08.253Z,1.06
2023-03-28T04:16:08.301Z,1.15
2023-03-28T04:17:08.289Z,1.18
2023-03-28T04:18:09.615Z,1.23
2023-03-28T04:19:08.326Z,1.15
2023-03-28T04:20:08.352Z,1.14
2023-03-28T04:21:08.344Z,1.09
2023-03-28T04:22:08.368Z,1.18
2023-03-28T04:23:08.512Z,1.15
2023-03-28T04:24:08.404Z,1.16
2023-03-28T04:25:08.410Z,1.08
2023-03-28T04:26:08.427Z,1.16
2023-03-28T04:27:08.443Z,1.08
2023-03-28T04:28:08.462Z,1.11
2023-03-28T04:29:08.480Z,1.08
2023-03-28T04:30:08.497Z,1.04
2023-03-28T04:31:08.632Z,1.06
2023-03-28T04:32:08.531Z,1.08
2023-03-28T04:33:08.566Z,1.06
2023-03-28T04:34:08.561Z,1.04
2023-03-28T04:35:08.580Z,1.12
2023-03-28T04:36:08.645Z,1.06
2023-03-28T04:37:08.599Z,1.08
2023-03-28T04:38:08.625Z,1.09
2023-03-28T04:39:08.642Z,1.04
2023-03-28T04:40:08.667Z,1.04
2023-03-28T04:41:08.672Z,1.09
2023-03-28T04:42:08.767Z,1.08
2023-03-28T04:43:08.707Z,1.06
2023-03-28T04:44:08.717Z,1.04
2023-03-28T04:45:08.776Z,1.04
2023-03-28T04:46:08.768Z,1.02
2023-03-28T04:47:08.783Z,1.06
2023-03-28T04:48:08.828Z,1.05
2023-03-28T04:49:08.802Z,1.02
2023-03-28T04:50:08.811Z,1.00
2023-03-28T04:51:08.825Z,0.93
2023-03-28T04:52:08.854Z,0.94
2023-03-28T04:53:08.966Z,1.00
2023-03-28T04:54:08.878Z,0.94
2023-03-28T04:55:08.891Z,0.96
2023-03-28T04:56:08.942Z,0.97
2023-03-28T04:57:09.014Z,1.02
2023-03-28T04:58:08.942Z,0.91
2023-03-28T04:59:08.972Z,0.97
2023-03-28T05:00:08.976Z,0.97
2023-03-28T05:01:09.018Z,1.02
2023-03-28T05:02:09.018Z,0.96
2023-03-28T05:03:10.863Z,0.96
2023-03-28T05:04:09.031Z,0.97
2023-03-28T05:05:09.047Z,0.86
2023-03-28T05:06:09.062Z,1.00
2023-03-28T05:07:09.076Z,0.87
2023-03-28T05:08:09.094Z,1.02
2023-03-28T05:09:09.120Z,0.87
2023-03-28T05:10:09.128Z,0.97
2023-03-28T05:11:09.141Z,1.00
2023-03-28T05:12:09.160Z,1.00
2023-03-28T05:13:09.178Z,0.94
2023-03-28T05:14:09.192Z,0.96
2023-03-28T05:15:09.203Z,0.96
2023-03-28T05:16:09.293Z,0.93
2023-03-28T05:17:09.232Z,1.05
2023-03-28T05:18:09.271Z,0.90
2023-03-28T05:19:09.266Z,1.00
2023-03-28T05:20:09.293Z,0.97
2023-03-28T05:21:09.296Z,0.94
2023-03-28T05:22:09.313Z,0.97
2023-03-28T05:23:09.327Z,0.91
2023-03-28T05:24:09.344Z,0.96
2023-03-28T05:25:09.357Z,0.91
2023-03-28T05:26:09.385Z,0.98
2023-03-28T05:27:09.385Z,1.02
2023-03-28T05:28:09.408Z,1.02
2023-03-28T05:29:09.421Z,1.04
2023-03-28T05:30:09.442Z,1.05
2023-03-28T05:31:09.455Z,1.05
2023-03-28T05:32:09.562Z,1.04
2023-03-28T05:33:09.505Z,1.11
2023-03-28T05:34:09.508Z,1.09
2023-03-28T05:35:09.517Z,1.11
2023-03-28T05:36:09.570Z,1.09
2023-03-28T05:37:09.551Z,1.22
2023-03-28T05:38:09.567Z,1.16
2023-03-28T05:39:09.579Z,1.20
2023-03-28T05:40:09.610Z,1.15
2023-03-28T05:41:09.614Z,1.23
2023-03-28T05:42:09.642Z,1.34
2023-03-28T05:43:09.646Z,1.26
2023-03-28T05:44:09.665Z,1.27
2023-03-28T05:45:09.675Z,1.33
2023-03-28T05:46:09.752Z,1.36
2023-03-28T05:47:09.712Z,1.34
2023-03-28T05:48:09.763Z,1.47
2023-03-28T05:49:09.743Z,1.40
2023-03-28T05:50:09.760Z,1.30
2023-03-28T05:51:09.774Z,1.48
2023-03-28T05:52:09.794Z,1.47
2023-03-28T05:53:09.807Z,1.54
2023-03-28T05:54:09.821Z,1.48
2023-03-28T05:55:09.838Z,1.59
2023-03-28T05:56:09.857Z,1.58
2023-03-28T05:57:09.890Z,1.59
2023-03-28T05:58:09.886Z,1.65
2023-03-28T05:59:09.904Z,1.69
2023-03-28T06:00:09.918Z,1.68
2023-03-28T06:01:09.951Z,1.63
2023-03-28T06:02:09.951Z,1.69
2023-03-28T06:03:16.276Z,1.77
2023-03-28T06:04:10.022Z,1.76
2023-03-28T06:05:10.035Z,1.90
2023-03-28T06:06:10.022Z,2.06
2023-03-28T06:07:10.031Z,2.10
2023-03-28T06:08:10.059Z,2.25
2023-03-28T06:09:10.062Z,2.25
2023-03-28T06:10:10.081Z,2.45
2023-03-28T06:11:10.097Z,2.52
2023-03-28T06:12:10.119Z,2.69
2023-03-28T06:13:10.134Z,2.84
2023-03-28T06:14:10.149Z,2.97
2023-03-28T06:15:10.162Z,3.06
2023-03-28T06:16:10.175Z,3.23
2023-03-28T06:17:10.210Z,3.43
2023-03-28T06:18:10.272Z,3.58
2023-03-28T06:19:17.710Z,3.79
2023-03-28T06:20:10.300Z,3.97
2023-03-28T06:21:10.267Z,4.11
2023-03-28T06:22:10.280Z,4.36
2023-03-28T06:23:10.298Z,4.55
2023-03-28T06:24:10.318Z,4.82
2023-03-28T06:25:10.339Z,5.03
2023-03-28T06:26:10.347Z,5.12
2023-03-28T06:27:10.369Z,5.31
2023-03-28T06:28:10.384Z,5.54
2023-03-28T06:29:10.412Z,5.74
2023-03-28T06:30:10.427Z,5.89
2023-03-28T06:31:10.483Z,6.01
2023-03-28T06:32:10.465Z,6.14
2023-03-28T06:33:10.478Z,6.44
2023-03-28T06:34:10.494Z,6.54
2023-03-28T06:35:10.520Z,6.77
2023-03-28T06:36:10.562Z,6.98
2023-03-28T06:37:10.561Z,7.32
2023-03-28T06:38:10.626Z,7.52
2023-03-28T06:39:10.589Z,7.68
2023-03-28T06:40:10.616Z,8.04
2023-03-28T06:41:10.623Z,8.20
2023-03-28T06:42:10.652Z,8.29
2023-03-28T06:43:10.666Z,8.40
2023-03-28T06:44:10.682Z,8.43
2023-03-28T06:45:10.705Z,8.28
2023-03-28T06:46:10.742Z,8.20
2023-03-28T06:47:10.742Z,8.12
2023-03-28T06:48:10.819Z,7.97
2023-03-28T06:49:10.777Z,7.79
2023-03-28T06:50:10.802Z,7.49
2023-03-28T06:51:10.820Z,7.28
2023-03-28T06:52:10.838Z,6.97
2023-03-28T06:53:10.856Z,6.73
2023-03-28T06:54:10.883Z,6.31
2023-03-28T06:55:10.898Z,6.18
2023-03-28T06:56:10.909Z,5.85
2023-03-28T06:57:10.954Z,5.81
2023-03-28T06:58:10.953Z,5.83
2023-03-28T06:59:10.977Z,5.61
2023-03-28T07:00:10.990Z,5.54
2023-03-28T07:01:11.021Z,5.49
2023-03-28T07:02:11.032Z,5.43
2023-03-28T07:03:11.060Z,5.39
2023-03-28T07:04:11.069Z,5.31
2023-03-28T07:05:11.082Z,5.30
2023-03-28T07:06:11.120Z,5.27
2023-03-28T07:07:11.123Z,5.21
2023-03-28T07:08:11.151Z,5.24
2023-03-28T07:09:11.165Z,5.24
2023-03-28T07:10:11.195Z,5.18
2023-03-28T07:11:11.202Z,5.21
2023-03-28T07:12:11.215Z,5.20
2023-03-28T07:13:11.236Z,5.13
2023-03-28T07:14:11.251Z,5.17
2023-03-28T07:15:11.275Z,5.21
2023-03-28T07:16:11.303Z,5.17
2023-03-28T07:17:11.309Z,5.20
2023-03-28T07:18:11.329Z,5.20
2023-03-28T07:19:11.379Z,5.12
2023-03-28T07:20:11.370Z,5.12
2023-03-28T07:21:11.393Z,5.22
2023-03-28T07:22:11.403Z,5.07
2023-03-28T07:23:11.422Z,5.09
2023-03-28T07:24:11.443Z,4.94
2023-03-28T07:25:11.461Z,5.04
2023-03-28T07:26:11.491Z,5.12
2023-03-28T07:27:15.482Z,5.03
2023-03-28T07:28:11.513Z,5.00
2023-03-28T07:29:11.538Z,5.04
2023-03-28T07:30:11.559Z,5.06
2023-03-28T07:31:11.613Z,5.12
2023-03-28T07:32:11.596Z,5.09
2023-03-28T07:33:17.141Z,5.17
2023-03-28T07:34:11.643Z,5.20
2023-03-28T07:35:11.656Z,5.20
2023-03-28T07:36:11.720Z,5.22
2023-03-28T07:37:11.682Z,5.38
2023-03-28T07:38:11.701Z,5.33
2023-03-28T07:39:11.718Z,5.40
2023-03-28T07:40:11.759Z,5.36
2023-03-28T07:41:11.757Z,5.39
2023-03-28T07:42:11.782Z,5.48
2023-03-28T07:43:11.796Z,5.49
2023-03-28T07:44:11.815Z,5.61
2023-03-28T07:45:11.842Z,5.56
2023-03-28T07:46:11.851Z,5.64
2023-03-28T07:47:11.869Z,5.76
2023-03-28T07:48:11.951Z,5.82
2023-03-28T07:49:11.903Z,5.82
2023-03-28T07:50:11.923Z,5.83
2023-03-28T07:51:11.949Z,5.90
2023-03-28T07:52:11.966Z,6.00
2023-03-28T07:53:11.983Z,6.01
2023-03-28T07:54:11.999Z,6.15
2023-03-28T07:55:12.017Z,6.06
2023-03-28T07:56:12.261Z,6.15
2023-03-28T07:57:12.095Z,6.09
2023-03-28T07:58:12.090Z,6.14
2023-03-28T07:59:12.095Z,6.19
2023-03-28T08:00:12.105Z,6.21
2023-03-28T08:01:12.188Z,6.00
2023-03-28T08:02:12.158Z,5.96
2023-03-28T08:03:12.233Z,5.91
2023-03-28T08:04:12.242Z,5.85
2023-03-28T08:05:12.235Z,5.89
2023-03-28T08:06:28.743Z,6.04
2023-03-28T08:07:12.248Z,6.01
2023-03-28T08:08:12.264Z,5.90
2023-03-28T08:09:12.281Z,6.01
2023-03-28T08:10:12.305Z,6.03
2023-03-28T08:11:12.325Z,6.06
2023-03-28T08:12:12.337Z,6.22
2023-03-28T08:13:12.358Z,6.15
2023-03-28T08:14:12.405Z,6.09
2023-03-28T08:15:12.397Z,6.04
2023-03-28T08:16:12.483Z,5.94
2023-03-28T08:17:12.444Z,5.91
2023-03-28T08:18:12.457Z,5.97
2023-03-28T08:19:13.295Z,6.04
2023-03-28T08:20:12.499Z,6.12
2023-03-28T08:21:12.506Z,6.11
2023-03-28T08:22:12.559Z,6.14
2023-03-28T08:23:12.547Z,6.14
2023-03-28T08:24:19.647Z,6.15
2023-03-28T08:25:12.592Z,6.30
2023-03-28T08:26:12.607Z,6.33
2023-03-28T08:27:12.639Z,6.54
2023-03-28T08:28:12.641Z,6.58
2023-03-28T08:29:12.667Z,6.67
2023-03-28T08:30:12.703Z,6.85
2023-03-28T08:31:12.736Z,6.77
2023-03-28T08:32:12.721Z,6.73
2023-03-28T08:33:12.802Z,6.74
2023-03-28T08:34:12.756Z,6.87
2023-03-28T08:35:12.781Z,6.95
2023-03-28T08:36:12.832Z,7.06
2023-03-28T08:37:12.819Z,6.95
2023-03-28T08:38:12.835Z,7.06
2023-03-28T08:39:12.859Z,7.10
2023-03-28T08:40:12.871Z,7.16
2023-03-28T08:41:12.889Z,7.12
2023-03-28T08:42:12.913Z,7.24
2023-03-28T08:43:12.941Z,7.30
2023-03-28T08:44:12.950Z,7.34
2023-03-28T08:45:12.978Z,7.35
2023-03-28T08:46:13.009Z,7.39
2023-03-28T08:47:13.010Z,7.45
2023-03-28T08:48:13.065Z,7.53
2023-03-28T08:49:13.051Z,7.52
2023-03-28T08:50:13.530Z,7.67
2023-03-28T08:51:13.091Z,7.52
2023-03-28T08:52:13.124Z,7.67
2023-03-28T08:53:13.133Z,7.63
2023-03-28T08:54:13.153Z,7.71
2023-03-28T08:55:13.167Z,7.74
2023-03-28T08:56:13.188Z,7.61
2023-03-28T08:57:13.262Z,7.64
2023-03-28T08:58:13.226Z,7.67
2023-03-28T08:59:13.253Z,7.45
2023-03-28T09:00:13.279Z,7.50
2023-03-28T09:01:13.295Z,7.55
2023-03-28T09:02:13.326Z,7.64
2023-03-28T09:03:13.408Z,7.55
2023-03-28T09:04:13.442Z,7.53
2023-03-28T09:05:23.140Z,7.61
2023-03-28T09:06:13.389Z,7.64
2023-03-28T09:07:13.410Z,7.80
2023-03-28T09:08:13.426Z,7.68
2023-03-28T09:09:13.455Z,7.80
2023-03-28T09:10:13.475Z,7.83
2023-03-28T09:11:13.497Z,7.85
2023-03-28T09:12:13.511Z,7.92
2023-03-28T09:13:13.533Z,7.98
2023-03-28T09:14:13.570Z,8.07
2023-03-28T09:15:13.572Z,8.19
2023-03-28T09:16:13.640Z,8.20
2023-03-28T09:17:13.613Z,8.43
2023-03-28T09:18:13.858Z,8.59
2023-03-28T09:19:13.665Z,8.70
2023-03-28T09:20:13.696Z,8.77
2023-03-28T09:21:13.702Z,8.84
2023-03-28T09:22:15.873Z,8.95
2023-03-28T09:23:13.741Z,9.02
2023-03-28T09:24:13.763Z,8.99
2023-03-28T09:25:13.779Z,9.10
2023-03-28T09:26:13.805Z,9.28
2023-03-28T09:27:13.822Z,9.42
2023-03-28T09:28:13.841Z,9.57
2023-03-28T09:29:13.864Z,9.54
2023-03-28T09:30:13.886Z,9.57
2023-03-28T09:31:13.950Z,9.50
2023-03-28T09:32:14.011Z,9.50
2023-03-28T09:33:13.953Z,9.28
2023-03-28T09:34:13.974Z,9.08
2023-03-28T09:35:13.999Z,9.05
2023-03-28T09:36:14.037Z,9.11
2023-03-28T09:37:14.037Z,9.36
2023-03-28T09:38:14.062Z,9.48
2023-03-28T09:39:14.093Z,9.57
2023-03-28T09:40:14.108Z,9.61
2023-03-28T09:41:14.129Z,9.66
2023-03-28T09:42:14.146Z,9.43
2023-03-28T09:43:14.173Z,9.60
2023-03-28T09:44:14.200Z,9.46
2023-03-28T09:45:14.213Z,9.53
2023-03-28T09:46:14.259Z,9.54
2023-03-28T09:47:14.257Z,9.53
2023-03-28T09:48:14.386Z,9.60
2023-03-28T09:49:14.300Z,9.66
2023-03-28T09:50:14.372Z,9.81
2023-03-28T09:51:14.355Z,9.91
2023-03-28T09:52:14.368Z,10.11
2023-03-28T09:53:14.390Z,10.04
2023-03-28T09:54:14.411Z,9.94
2023-03-28T09:55:14.443Z,9.93
2023-03-28T09:56:14.471Z,9.96
2023-03-28T09:57:14.529Z,9.79
2023-03-28T09:58:14.505Z,9.71
2023-03-28T09:59:14.533Z,9.60
2023-03-28T10:00:14.552Z,9.54
2023-03-28T10:01:14.602Z,9.58
2023-03-28T10:02:14.685Z,9.57
2023-03-28T10:03:14.613Z,9.60
2023-03-28T10:04:14.693Z,9.64
2023-03-28T10:05:14.656Z,9.64
2023-03-28T10:06:14.682Z,9.64
2023-03-28T10:07:14.706Z,9.76
2023-03-28T10:08:14.724Z,9.68
2023-03-28T10:09:14.757Z,9.83
2023-03-28T10:10:14.767Z,9.84
2023-03-28T10:11:14.789Z,9.87
2023-03-28T10:12:14.812Z,9.72
2023-03-28T10:13:14.847Z,9.64
2023-03-28T10:14:14.858Z,9.57
2023-03-28T10:15:14.883Z,9.35
2023-03-28T10:16:14.928Z,9.21
2023-03-28T10:17:14.924Z,9.21
2023-03-28T10:18:15.013Z,9.36
2023-03-28T10:19:14.965Z,9.54
2023-03-28T10:20:14.992Z,9.51
2023-03-28T10:21:15.011Z,9.60
2023-03-28T10:22:15.031Z,9.78
2023-03-28T10:23:15.058Z,9.79
2023-03-28T10:24:15.078Z,9.78
2023-03-28T10:25:15.102Z,9.48
2023-03-28T10:26:15.126Z,9.58
2023-03-28T10:27:15.143Z,9.64
2023-03-28T10:28:15.170Z,9.78
2023-03-28T10:29:15.188Z,9.83
2023-03-28T10:30:15.318Z,9.89
2023-03-28T10:31:15.307Z,9.86
2023-03-28T10:32:15.259Z,9.90
2023-03-28T10:33:15.282Z,10.01
2023-03-28T10:34:15.301Z,10.07
2023-03-28T10:35:15.322Z,10.09
2023-03-28T10:36:15.360Z,10.05
2023-03-28T10:37:15.371Z,10.04
2023-03-28T10:38:15.388Z,10.04
2023-03-28T10:39:15.412Z,10.08
2023-03-28T10:40:15.497Z,10.17
2023-03-28T10:41:15.454Z,10.04
2023-03-28T10:42:15.486Z,9.99
2023-03-28T10:43:15.513Z,9.91
2023-03-28T10:44:15.523Z,9.89
2023-03-28T10:45:15.545Z,9.76
2023-03-28T10:46:15.639Z,9.71
2023-03-28T10:47:15.590Z,9.83
2023-03-28T10:48:15.620Z,9.83
2023-03-28T10:49:15.668Z,9.86
2023-03-28T10:50:15.659Z,9.84
2023-03-28T10:51:15.679Z,9.93
2023-03-28T10:52:15.710Z,9.97
2023-03-28T10:53:15.722Z,9.93
2023-03-28T10:54:15.766Z,9.97
2023-03-28T10:55:15.783Z,10.11
2023-03-28T10:56:15.800Z,10.25
2023-03-28T10:57:15.859Z,10.30
2023-03-28T10:58:15.834Z,10.38
2023-03-28T10:59:15.859Z,10.61
2023-03-28T11:00:15.882Z,10.59
2023-03-28T11:01:15.898Z,10.55
2023-03-28T11:02:16.014Z,10.66
2023-03-28T11:03:16.055Z,10.71
2023-03-28T11:04:15.983Z,10.84
2023-03-28T11:05:15.993Z,10.74
2023-03-28T11:06:16.021Z,10.82
2023-03-28T11:07:16.041Z,10.86
2023-03-28T11:08:16.061Z,10.97
2023-03-28T11:09:16.088Z,10.91
2023-03-28T11:10:16.120Z,10.86
2023-03-28T11:11:16.130Z,10.88
2023-03-28T11:12:26.488Z,10.78
2023-03-28T11:13:16.176Z,10.76
2023-03-28T11:14:16.206Z,10.73
2023-03-28T11:15:16.224Z,10.79
2023-03-28T11:16:16.305Z,10.71
2023-03-28T11:17:16.267Z,10.66
2023-03-28T11:18:16.291Z,10.63
2023-03-28T11:19:16.312Z,10.60
2023-03-28T11:20:16.349Z,10.71
2023-03-28T11:21:16.356Z,10.66
2023-03-28T11:22:16.382Z,10.78
2023-03-28T11:23:16.419Z,10.78
2023-03-28T11:24:16.442Z,10.84
2023-03-28T11:25:16.459Z,10.64
2023-03-28T11:26:16.477Z,10.70
2023-03-28T11:27:16.719Z,10.64
2023-03-28T11:28:16.520Z,10.56
2023-03-28T11:29:16.659Z,10.55
2023-03-28T11:30:16.638Z,10.48
2023-03-28T11:31:16.589Z,10.47
2023-03-28T11:32:16.618Z,10.45
2023-03-28T11:33:16.645Z,10.36
2023-03-28T11:34:16.661Z,10.26
2023-03-28T11:35:16.685Z,10.38
2023-03-28T11:36:16.713Z,10.36
2023-03-28T11:37:16.724Z,10.55
2023-03-28T11:38:16.750Z,10.56
2023-03-28T11:39:16.783Z,10.68
2023-03-28T11:40:16.793Z,10.61
2023-03-28T11:41:16.820Z,10.67
2023-03-28T11:42:16.844Z,10.81
2023-03-28T11:43:16.862Z,10.91
2023-03-28T11:44:16.886Z,10.88
2023-03-28T11:45:16.909Z,11.02
2023-03-28T11:46:16.951Z,11.07
2023-03-28T11:47:16.989Z,11.18
2023-03-28T11:48:16.978Z,11.29
2023-03-28T11:49:17.016Z,11.42
2023-03-28T11:50:17.042Z,11.51
2023-03-28T11:51:17.050Z,11.40
2023-03-28T11:52:17.071Z,11.44
2023-03-28T11:53:17.094Z,11.44
2023-03-28T11:54:17.118Z,11.58
2023-03-28T11:55:17.142Z,11.49
2023-03-28T11:56:17.168Z,11.58
2023-03-28T11:57:17.229Z,11.60
2023-03-28T11:58:17.218Z,11.64
2023-03-28T11:59:17.250Z,11.57
2023-03-28T12:00:26.805Z,11.51
2023-03-28T12:01:17.316Z,11.42
2023-03-28T12:02:17.357Z,11.40
2023-03-28T12:03:17.418Z,11.44
2023-03-28T12:04:17.383Z,11.44
2023-03-28T12:05:17.374Z,11.40
2023-03-28T12:06:17.394Z,11.44
2023-03-28T12:07:17.441Z,11.43
2023-03-28T12:08:17.441Z,11.55
2023-03-28T12:09:17.463Z,11.61
2023-03-28T12:10:17.490Z,11.64
2023-03-28T12:11:17.512Z,11.72
2023-03-28T12:12:17.534Z,11.82
2023-03-28T12:13:17.568Z,11.88
2023-03-28T12:14:17.700Z,11.94
2023-03-28T12:15:17.601Z,12.04
2023-03-28T12:16:17.740Z,12.10
2023-03-28T12:17:17.652Z,12.12
2023-03-28T12:18:17.682Z,12.14
2023-03-28T12:19:17.696Z,12.13
2023-03-28T12:20:18.331Z,12.14
2023-03-28T12:21:17.746Z,12.09
2023-03-28T12:22:17.772Z,12.02
2023-03-28T12:23:17.794Z,11.96
2023-03-28T12:24:17.815Z,11.95
2023-03-28T12:25:17.845Z,11.99
2023-03-28T12:26:17.865Z,11.90
2023-03-28T12:27:17.888Z,11.85
2023-03-28T12:28:17.909Z,11.86
2023-03-28T12:29:17.966Z,11.82
2023-03-28T12:30:17.960Z,11.83
2023-03-28T12:31:18.091Z,11.98
2023-03-28T12:32:18.020Z,11.90
2023-03-28T12:33:18.037Z,11.96
2023-03-28T12:34:18.052Z,11.94
2023-03-28T12:35:18.102Z,12.07
2023-03-28T12:36:18.138Z,12.14
2023-03-28T12:37:18.128Z,12.16
2023-03-28T12:38:18.150Z,12.13
2023-03-28T12:39:18.178Z,12.04
2023-03-28T12:40:18.195Z,11.86
2023-03-28T12:41:18.222Z,11.86
2023-03-28T12:42:18.244Z,11.85
2023-03-28T12:43:18.269Z,11.83
2023-03-28T12:44:19.283Z,11.88
2023-03-28T12:45:18.309Z,11.86
2023-03-28T12:46:18.556Z,11.95
2023-03-28T12:47:18.371Z,11.94
2023-03-28T12:48:18.386Z,12.02
2023-03-28T12:49:18.409Z,11.95
2023-03-28T12:50:18.439Z,11.98
2023-03-28T12:51:18.453Z,11.96
2023-03-28T12:52:18.480Z,12.01
2023-03-28T12:53:18.514Z,12.10
2023-03-28T12:54:18.526Z,12.16
2023-03-28T12:55:18.549Z,12.12
2023-03-28T12:56:18.571Z,12.12
2023-03-28T12:57:26.745Z,12.05
2023-03-28T12:58:18.626Z,12.16
2023-03-28T12:59:18.650Z,12.14
2023-03-28T13:00:18.674Z,12.21
2023-03-28T13:01:18.736Z,12.24
2023-03-28T13:02:18.717Z,12.17
2023-03-28T13:03:18.757Z,12.19
2023-03-28T13:04:18.783Z,12.17
2023-03-28T13:05:18.794Z,12.14
2023-03-28T13:06:18.816Z,12.31
2023-03-28T13:07:18.849Z,12.28
2023-03-28T13:08:18.901Z,12.27
2023-03-28T13:09:18.888Z,12.29
2023-03-28T13:10:18.922Z,12.34
2023-03-28T13:11:18.941Z,12.32
2023-03-28T13:12:18.962Z,12.32
2023-03-28T13:13:18.987Z,12.29